ETEB 220056Z AUTO 17003KT 6000 BR OVC003 M03/M03 A3057 RMK AO2 SLP399 T10351035 $ ETIK 220111Z AUTO 10003KT 9999 OVC006 M02/M02 A3060 RMK AO2 SLP386 $ EDDE 220150Z 24010KT CAVOK M05/M06 Q1034 EDDF 220150Z 08004KT CAVOK M05/M06 Q1037 NOSIG ETIC 220146Z AUTO 00000KT 0800 R14/0800V1000 -FZDZ FZFG VV001 M04/M04 A3054 RMK AO2 FZDZE04FZDZB07E21FZDZB27E40FZDZB46 SLP370 $ ETIH 220056Z AUTO 00000KT 6000 BR OVC004 M03/M04 A3058 RMK AO2 SLP388 T10261040 ETSI 220120Z AUTO 26002KT 6000 // ////// M02/M04 Q1036 /// EDDP 220150Z 23006KT CAVOK M03/M04 Q1035 NOSIG EDDM 220150Z VRB02KT 4000 BR OVC004 M03/M04 Q1035 NOSIG ETSN 220120Z VRB01KT 7000 OVC007 M02/M04 Q1035 GRN ETHN 220153Z 16006KT 1500 BR OVC000 M04/M04 Q1034 RED EDDN 220150Z 16005KT 130V190 4500 BR OVC004 M02/M03 Q1036 EDDS 220150Z VRB01KT 9000 NSC M06/M07 Q1034

METAR Messwerte

Klicken Sie auf einen Ort, um die 36h-Historie abzurufen

Ort
m ü. NN
Zeit Temperatur Taupunkt Rel.
Luftfeuchte
Luftdruck:
Altimeter
NN
Station
Wind in Beaufort
(Knoten)
Sichtweite
(Meter)
Wolken
(Meter über Grund)
Wettererscheinung
Ansbach
467
Mi 22.01. 01:56-3-3100 %1035
1039
979
S 2 (3)6000Bedeckt (91)Nebeldunst
Bad Windsheim / Illesheim
325
Mi 22.01. 02:11-2-2100 %1036
1039
997
O 2 (3)>= 10000Bedeckt (180) 
Erfurt-Bindersleben
323
Mi 22.01. 02:50-5-693 %1034
1037
995
WSW 3 (10)>= 10000Nicht signifikant 
Frankfurt
113
Mi 22.01. 02:50-5-693 %1037
1038
1023
O 2 (4)>= 10000Nicht signifikant 
Grafenwöhr
415
Mi 22.01. 02:46-4-4100 %1034
1038
984
Windstill800 Nieselregen (gefrierend, schwach)
Nebel
Hohenfels
442
Mi 22.01. 01:56-3-493 %1036
1040
983
Windstill6000Bedeckt (120)Nebeldunst
Ingolstadt
370
Mi 22.01. 02:20-2-486 %1036
1039
992
W 1 (2)6000  
Leipzig-Schkeuditz
149
Mi 22.01. 02:50-3-493 %1035
1036
1017
SW 2 (6)>= 10000Nicht signifikant 
München
447
Mi 22.01. 02:50-3-493 %1035
1039
982
Uml 1 (2)4000Bedeckt (120)Nebeldunst
Neuburg/Donau
387
Mi 22.01. 02:20-2-486 %1035
1038
989
Uml 1 (1)7000Bedeckt (210) 
Niederstetten
473
Mi 22.01. 02:53-4-4100 %1034
1038
978
SSO 2 (6)1500Bedeckt (0)Nebeldunst
Nürnberg
312
Mi 22.01. 02:50-2-393 %1036
1039
998
SSO 2 (5)
SO - S
4500Bedeckt (120)Nebeldunst
Stuttgart
419
Mi 22.01. 02:50-6-793 %1034
1038
984
Uml 1 (1)9000Nicht signifikant 

Altimeter: Einstellung am Altimeter (Höhenmesser), die Höhe 0 muss auf diesen Luftdruckwert zeigen, damit das Gerät die Stationshöhe richtig anzeigt.

NN: Luftdruck reduziert auf "Normal Null", auf Meereshöhe, dieser von der Temperatur abhängige Wert wird bisweilen unkorrekt einfach als "Luftdruck" bezeichnet. Eigentlich nur eine fiktive Größe, die es erlaubt, Stationen auf unterschiedlichen Höhen miteinander zu vergleichen.

Station: Realer Luftdruck an der Station.